createdAt,value
2022-08-05T00:01:20.986Z,22.50
2022-08-05T00:04:08.321Z,22.50
2022-08-05T00:06:43.321Z,22.40
2022-08-05T00:09:19.852Z,22.30
2022-08-05T00:12:00.023Z,22.30
2022-08-05T00:14:36.695Z,22.30
2022-08-05T00:17:19.502Z,22.30
2022-08-05T00:20:02.634Z,22.20
2022-08-05T00:22:38.209Z,22.20
2022-08-05T00:25:21.377Z,22.10
2022-08-05T00:27:57.231Z,22.10
2022-08-05T00:30:32.054Z,22.00
2022-08-05T00:33:06.971Z,22.00
2022-08-05T00:36:15.223Z,21.90
2022-08-05T00:38:49.039Z,21.90
2022-08-05T00:41:51.675Z,21.90
2022-08-05T00:44:30.706Z,21.90
2022-08-05T00:47:06.903Z,21.80
2022-08-05T00:49:51.674Z,21.70
2022-08-05T00:52:30.042Z,21.70
2022-08-05T00:55:05.359Z,21.70
2022-08-05T00:57:58.569Z,21.70
2022-08-05T01:00:34.452Z,21.60
2022-08-05T01:03:09.381Z,21.60
2022-08-05T01:05:44.276Z,21.60
2022-08-05T01:08:41.698Z,21.50
2022-08-05T01:11:21.889Z,21.50
2022-08-05T01:14:08.848Z,21.40
2022-08-05T01:16:46.929Z,21.40
2022-08-05T01:19:30.422Z,21.40
2022-08-05T01:22:46.969Z,21.40
2022-08-05T01:25:43.320Z,21.30
2022-08-05T01:28:34.282Z,21.20
2022-08-05T01:31:12.909Z,21.30
2022-08-05T01:33:53.473Z,21.20
2022-08-05T01:36:30.278Z,21.20
2022-08-05T01:39:04.672Z,21.20
2022-08-05T01:41:44.442Z,21.10
2022-08-05T01:44:23.157Z,21.10
2022-08-05T01:47:09.849Z,21.10
2022-08-05T01:50:01.494Z,21.00
2022-08-05T01:52:38.343Z,21.00
2022-08-05T01:55:14.976Z,21.00
2022-08-05T01:58:09.944Z,21.00
2022-08-05T02:00:52.360Z,20.90
2022-08-05T02:03:31.970Z,20.90
2022-08-05T02:06:36.980Z,20.90
2022-08-05T02:09:07.804Z,20.80
2022-08-05T02:11:47.018Z,20.80
2022-08-05T02:14:25.184Z,20.80
2022-08-05T02:17:07.421Z,20.70
2022-08-05T02:19:49.279Z,20.80
2022-08-05T02:22:27.441Z,20.70
2022-08-05T02:25:05.055Z,20.70
2022-08-05T02:27:58.378Z,20.70
2022-08-05T02:30:54.099Z,20.60
2022-08-05T02:33:35.935Z,20.60
2022-08-05T02:36:16.685Z,20.60
2022-08-05T02:38:53.515Z,20.50
2022-08-05T02:41:42.806Z,20.50
2022-08-05T02:44:14.350Z,20.40
2022-08-05T02:46:58.453Z,20.40
2022-08-05T02:49:37.734Z,20.30
2022-08-05T02:52:29.354Z,20.30
2022-08-05T02:55:08.581Z,20.20
2022-08-05T02:58:09.833Z,20.20
2022-08-05T03:00:40.334Z,20.20
2022-08-05T03:03:20.345Z,20.10
2022-08-05T03:06:53.942Z,20.10
2022-08-05T03:08:55.888Z,20.00
2022-08-05T03:11:55.096Z,20.00
2022-08-05T03:14:25.055Z,19.90
2022-08-05T03:17:05.059Z,19.90
2022-08-05T03:19:45.727Z,19.90
2022-08-05T03:22:32.202Z,19.80
2022-08-05T03:25:31.586Z,19.80
2022-08-05T03:28:04.330Z,19.80
2022-08-05T03:30:41.186Z,19.80
2022-08-05T03:33:20.408Z,19.80
2022-08-05T03:35:58.375Z,19.70
2022-08-05T03:38:37.387Z,19.70
2022-08-05T03:41:15.452Z,19.70
2022-08-05T03:44:08.167Z,19.60
2022-08-05T03:46:46.986Z,19.70
2022-08-05T03:49:24.105Z,19.60
2022-08-05T03:52:37.323Z,19.60
2022-08-05T03:56:01.329Z,19.60
2022-08-05T03:58:01.089Z,19.70
2022-08-05T04:00:35.284Z,19.80
2022-08-05T04:03:14.820Z,19.80
2022-08-05T04:06:01.043Z,19.90
2022-08-05T04:08:37.990Z,20.00
2022-08-05T04:11:11.358Z,20.10
2022-08-05T04:13:53.413Z,20.20
2022-08-05T04:16:32.451Z,20.30
2022-08-05T04:19:10.649Z,20.40
2022-08-05T04:22:09.390Z,20.60
2022-08-05T04:24:44.173Z,20.80
2022-08-05T04:27:19.155Z,21.00
2022-08-05T04:29:56.722Z,21.20
2022-08-05T04:32:33.415Z,21.30
2022-08-05T04:35:17.703Z,21.50
2022-08-05T04:38:02.724Z,21.60
2022-08-05T04:40:47.924Z,21.80
2022-08-05T04:43:24.507Z,22.00
2022-08-05T04:46:05.118Z,22.20
2022-08-05T04:48:40.152Z,22.40
2022-08-05T04:51:18.519Z,22.60
2022-08-05T04:53:57.973Z,22.80
2022-08-05T04:56:37.286Z,23.00
2022-08-05T04:59:22.151Z,23.00
2022-08-05T05:02:36.283Z,23.20
2022-08-05T05:05:17.002Z,23.30
2022-08-05T05:08:02.015Z,23.50
2022-08-05T05:10:55.776Z,23.70
2022-08-05T05:13:32.380Z,23.70
2022-08-05T05:16:19.786Z,24.00
2022-08-05T05:19:17.784Z,24.10
2022-08-05T05:21:52.494Z,24.30
2022-08-05T05:24:58.399Z,24.60
2022-08-05T05:27:24.790Z,24.60
2022-08-05T05:30:31.341Z,24.80
2022-08-05T05:33:17.169Z,25.00
2022-08-05T05:35:55.499Z,25.10
2022-08-05T05:38:32.526Z,25.10
2022-08-05T05:41:08.662Z,25.20
2022-08-05T05:43:57.193Z,25.40
2022-08-05T05:46:33.929Z,25.50
2022-08-05T05:49:23.148Z,25.50
2022-08-05T05:52:05.918Z,25.70
2022-08-05T05:54:50.255Z,25.90
2022-08-05T05:57:25.970Z,26.10
2022-08-05T06:00:19.987Z,26.30
2022-08-05T06:02:54.774Z,26.30
2022-08-05T06:05:29.510Z,26.60
2022-08-05T06:08:10.696Z,26.60
2022-08-05T06:10:49.147Z,26.70
2022-08-05T06:13:27.354Z,26.90
2022-08-05T06:16:29.029Z,27.10
2022-08-05T06:19:07.352Z,27.30
2022-08-05T06:21:49.641Z,27.50
2022-08-05T06:24:27.467Z,27.70
2022-08-05T06:27:02.291Z,27.90
2022-08-05T06:29:46.908Z,28.10
2022-08-05T06:32:29.079Z,28.20
2022-08-05T06:35:15.476Z,28.40
2022-08-05T06:38:11.348Z,28.60
2022-08-05T06:40:49.390Z,28.70
2022-08-05T06:43:59.723Z,28.70
2022-08-05T06:46:20.796Z,28.80
2022-08-05T06:48:58.986Z,28.80
2022-08-05T06:51:35.411Z,28.90
2022-08-05T06:54:19.290Z,29.20
2022-08-05T06:58:03.355Z,29.40
2022-08-05T07:00:01.585Z,29.70
2022-08-05T07:02:37.816Z,29.90
2022-08-05T07:05:20.061Z,30.10
2022-08-05T07:07:57.242Z,30.30
2022-08-05T07:10:36.051Z,30.50
2022-08-05T07:13:46.356Z,30.70
2022-08-05T07:18:01.977Z,30.80
2022-08-05T07:20:16.686Z,31.00
2022-08-05T07:22:27.793Z,31.10
2022-08-05T07:25:22.994Z,31.40
2022-08-05T07:28:05.917Z,31.60
2022-08-05T07:30:50.461Z,31.80
2022-08-05T07:33:37.168Z,31.90
2022-08-05T07:36:20.901Z,31.80
2022-08-05T07:38:56.887Z,31.80
2022-08-05T07:42:12.961Z,31.80
2022-08-05T07:44:26.115Z,31.90
2022-08-05T07:47:10.156Z,32.00
2022-08-05T07:49:54.651Z,32.10
2022-08-05T07:52:30.717Z,32.30
2022-08-05T07:55:44.456Z,32.30
2022-08-05T07:58:03.245Z,32.50
2022-08-05T08:00:39.972Z,32.80
2022-08-05T08:03:17.778Z,33.00
2022-08-05T08:05:57.177Z,33.10
2022-08-05T08:08:33.152Z,33.20
2022-08-05T08:11:09.155Z,33.40
2022-08-05T08:14:00.785Z,33.40
2022-08-05T08:16:51.183Z,33.50
2022-08-05T08:20:10.719Z,33.60
2022-08-05T08:22:29.796Z,33.70
2022-08-05T08:25:15.743Z,33.90
2022-08-05T08:27:51.767Z,34.10
2022-08-05T08:30:40.886Z,34.20
2022-08-05T08:33:23.686Z,34.40
2022-08-05T08:36:37.510Z,34.50
2022-08-05T08:38:58.662Z,34.50
2022-08-05T08:41:51.092Z,34.60
2022-08-05T08:45:17.127Z,34.70
2022-08-05T08:48:06.656Z,34.80
2022-08-05T08:50:31.131Z,34.80
2022-08-05T08:53:19.766Z,34.80
2022-08-05T08:56:03.731Z,34.80
2022-08-05T08:58:47.458Z,34.90
2022-08-05T09:01:24.775Z,35.00
2022-08-05T09:04:00.737Z,35.10
2022-08-05T09:06:36.901Z,35.20
2022-08-05T09:09:14.584Z,35.30
2022-08-05T09:11:50.955Z,35.50
2022-08-05T09:14:56.816Z,35.60
2022-08-05T09:17:40.516Z,35.80
2022-08-05T09:20:36.243Z,35.80
2022-08-05T09:23:18.821Z,35.80
2022-08-05T09:26:10.908Z,35.80
2022-08-05T09:28:56.498Z,35.80
2022-08-05T09:32:41.002Z,35.90
2022-08-05T09:34:27.036Z,35.80
2022-08-05T09:37:01.978Z,35.90
2022-08-05T09:39:45.723Z,36.10
2022-08-05T09:42:28.402Z,36.20
2022-08-05T09:45:17.625Z,36.30
2022-08-05T09:48:04.297Z,36.30
2022-08-05T09:50:44.866Z,36.40
2022-08-05T09:53:25.782Z,36.50
2022-08-05T09:56:12.843Z,36.60
2022-08-05T09:59:00.433Z,36.80
2022-08-05T10:01:45.799Z,36.80
2022-08-05T10:04:28.521Z,36.80
2022-08-05T10:07:21.060Z,36.90
2022-08-05T10:10:13.738Z,37.10
2022-08-05T10:12:50.675Z,37.40
2022-08-05T10:15:29.868Z,37.30
2022-08-05T10:18:14.394Z,37.30
2022-08-05T10:20:52.998Z,37.40
2022-08-05T10:23:50.909Z,37.30
2022-08-05T10:26:31.544Z,37.30
2022-08-05T10:29:06.731Z,37.30
2022-08-05T10:32:53.843Z,37.20
2022-08-05T10:34:42.712Z,37.20
2022-08-05T10:37:26.708Z,37.20
2022-08-05T10:40:28.124Z,37.40
2022-08-05T10:43:12.907Z,37.60
2022-08-05T10:45:56.603Z,37.50
2022-08-05T10:48:56.656Z,37.60
2022-08-05T10:51:57.577Z,37.60
2022-08-05T10:54:56.122Z,37.50
2022-08-05T10:57:32.073Z,37.50
2022-08-05T11:00:18.600Z,37.50
2022-08-05T11:03:25.950Z,37.50
2022-08-05T11:06:15.558Z,37.60
2022-08-05T11:08:51.529Z,37.70
2022-08-05T11:11:52.751Z,37.60
2022-08-05T11:14:49.355Z,37.60
2022-08-05T11:17:57.194Z,37.50
2022-08-05T11:20:38.947Z,37.60
2022-08-05T11:24:03.875Z,37.70
2022-08-05T11:26:33.527Z,37.70
2022-08-05T11:29:14.334Z,37.70
2022-08-05T11:31:56.417Z,37.60
2022-08-05T11:34:51.969Z,37.50
2022-08-05T11:38:29.891Z,37.40
2022-08-05T11:40:40.690Z,37.50
2022-08-05T11:44:06.575Z,37.60
2022-08-05T11:46:32.808Z,37.60
2022-08-05T11:49:10.113Z,37.60
2022-08-05T11:51:49.474Z,37.70
2022-08-05T11:54:33.471Z,37.70
2022-08-05T11:57:24.234Z,37.70
2022-08-05T12:00:00.677Z,37.50
2022-08-05T12:02:40.177Z,37.30
2022-08-05T12:05:17.797Z,37.10
2022-08-05T12:08:07.567Z,37.10
2022-08-05T12:10:46.293Z,37.00
2022-08-05T12:13:47.547Z,37.00
2022-08-05T12:16:27.022Z,36.90
2022-08-05T12:19:08.357Z,36.80
2022-08-05T12:21:48.172Z,36.80
2022-08-05T12:24:24.647Z,36.90
2022-08-05T12:27:00.085Z,36.90
2022-08-05T12:29:45.133Z,36.90
2022-08-05T12:32:32.274Z,36.90
2022-08-05T12:35:10.423Z,36.90
2022-08-05T12:37:45.101Z,36.90
2022-08-05T12:40:26.802Z,36.80
2022-08-05T12:43:06.647Z,36.80
2022-08-05T12:45:49.659Z,36.90
2022-08-05T12:48:32.300Z,36.80
2022-08-05T12:52:10.685Z,36.80
2022-08-05T12:54:16.923Z,36.80
2022-08-05T12:56:59.847Z,36.70
2022-08-05T13:00:08.655Z,36.60
2022-08-05T13:02:32.281Z,36.60
2022-08-05T13:05:12.487Z,36.50
2022-08-05T13:07:59.686Z,36.40
2022-08-05T13:10:35.594Z,36.40
2022-08-05T13:14:06.132Z,36.30
2022-08-05T13:16:25.146Z,36.40
2022-08-05T13:19:01.759Z,36.30
2022-08-05T13:21:38.015Z,36.30
2022-08-05T13:24:31.323Z,36.30
2022-08-05T13:27:37.489Z,36.30
2022-08-05T13:30:33.536Z,36.30
2022-08-05T13:33:06.424Z,36.30
2022-08-05T13:35:50.410Z,36.20
2022-08-05T13:38:30.404Z,36.10
2022-08-05T13:41:09.325Z,36.10
2022-08-05T13:43:54.907Z,36.00
2022-08-05T13:46:50.597Z,36.00
2022-08-05T13:49:23.386Z,36.10
2022-08-05T13:51:57.670Z,36.10
2022-08-05T13:54:32.799Z,36.10
2022-08-05T13:57:10.797Z,36.10
2022-08-05T13:59:57.296Z,36.00
2022-08-05T14:02:34.665Z,36.00
2022-08-05T14:05:19.404Z,36.00
2022-08-05T14:08:11.372Z,36.00
2022-08-05T14:11:03.439Z,36.00
2022-08-05T14:13:55.093Z,36.00
2022-08-05T14:16:33.352Z,36.00
2022-08-05T14:19:11.216Z,36.00
2022-08-05T14:24:40.304Z,36.00
2022-08-05T14:27:28.239Z,36.00
2022-08-05T14:30:20.429Z,36.00
2022-08-05T14:32:56.765Z,36.00
2022-08-05T14:35:37.103Z,35.90
2022-08-05T14:38:31.935Z,35.90
2022-08-05T14:41:09.201Z,35.90
2022-08-05T14:44:00.145Z,35.80
2022-08-05T14:46:42.700Z,35.80
2022-08-05T14:49:19.395Z,35.70
2022-08-05T14:51:55.733Z,35.70
2022-08-05T14:54:33.843Z,35.70
2022-08-05T14:57:09.694Z,35.70
2022-08-05T14:59:46.558Z,35.60
2022-08-05T15:02:26.846Z,35.60
2022-08-05T15:05:08.736Z,35.60
2022-08-05T15:08:11.379Z,35.60
2022-08-05T15:10:47.017Z,35.50
2022-08-05T15:13:44.846Z,35.50
2022-08-05T15:16:18.859Z,35.50
2022-08-05T15:18:57.157Z,35.50
2022-08-05T15:21:35.813Z,35.40
2022-08-05T15:24:10.684Z,35.40
2022-08-05T15:26:46.090Z,35.40
2022-08-05T15:29:29.742Z,35.40
2022-08-05T15:32:08.305Z,35.30
2022-08-05T15:34:45.648Z,35.30
2022-08-05T15:38:33.466Z,35.30
2022-08-05T15:40:58.404Z,35.30
2022-08-05T15:43:20.039Z,35.20
2022-08-05T15:46:00.161Z,35.20
2022-08-05T15:48:34.633Z,35.20
2022-08-05T15:51:12.784Z,35.10
2022-08-05T15:53:50.930Z,35.10
2022-08-05T15:56:30.628Z,35.10
2022-08-05T15:59:05.878Z,35.00
2022-08-05T16:01:40.687Z,35.00
2022-08-05T16:04:27.734Z,35.00
2022-08-05T16:07:06.154Z,35.00
2022-08-05T16:09:45.723Z,34.90
2022-08-05T16:12:23.809Z,34.90
2022-08-05T16:14:59.309Z,34.90
2022-08-05T16:17:35.294Z,34.90
2022-08-05T16:20:11.621Z,34.90
2022-08-05T16:22:49.923Z,34.90
2022-08-05T16:25:34.204Z,34.90
2022-08-05T16:28:10.388Z,34.90
2022-08-05T16:30:45.578Z,34.90
2022-08-05T16:33:21.690Z,34.80
2022-08-05T16:35:56.415Z,34.80
2022-08-05T16:38:33.605Z,34.70
2022-08-05T16:42:12.289Z,34.70
2022-08-05T16:44:01.662Z,34.70
2022-08-05T16:46:34.753Z,34.70
2022-08-05T16:49:12.877Z,34.60
